Time,TemperatureF,DewpointF,PressureIn,WindDirection,WindDirectionDegrees,WindSpeedMPH,WindSpeedGustMPH,Humidity,HourlyPrecipIn,Conditions,Clouds,dailyrainin,SoftwareType,DateUTC
2013-11-08 00:00:00,39.1,37.8,30.34,SSW,194,0.0,0.0,95,0.00,,,0.00,Wunderground v.1.15,2013-11-08 06:00:00,
2013-11-08 00:03:00,39.2,37.9,30.34,SSW,194,0.0,0.0,95,0.00,,---,0.00,VWS V14.01,2013-11-08 06:03:00,
2013-11-08 00:05:00,39.2,37.9,30.34,SSW,194,0.0,0.0,95,0.00,,,0.00,Wunderground v.1.15,2013-11-08 06:05:00,
2013-11-08 00:09:00,39.3,38.3,30.34,SSW,194,0.0,0.0,96,0.00,,---,0.00,VWS V14.01,2013-11-08 06:09:00,
2013-11-08 00:10:00,39.5,38.5,30.34,SSW,194,0.0,0.0,96,0.00,,,0.00,Wunderground v.1.15,2013-11-08 06:10:00,
2013-11-08 00:14:00,39.3,38.0,30.34,SSW,194,0.0,0.0,95,0.00,,---,0.00,VWS V14.01,2013-11-08 06:14:00,
2013-11-08 00:19:00,39.3,38.0,30.34,SSW,194,0.0,0.0,95,0.00,,---,0.00,VWS V14.01,2013-11-08 06:19:00,
2013-11-08 00:20:00,39.3,38.0,30.34,SSW,194,0.0,0.0,95,0.00,,,0.00,Wunderground v.1.15,2013-11-08 06:20:00,
2013-11-08 00:24:00,39.3,38.0,30.34,SSW,194,0.0,0.0,95,0.00,,---,0.00,VWS V14.01,2013-11-08 06:24:00,
2013-11-08 00:25:00,39.3,38.0,30.34,SSW,194,0.0,0.0,95,0.00,,,0.00,Wunderground v.1.15,2013-11-08 06:25:00,
2013-11-08 00:29:00,39.3,38.0,30.34,SSW,194,0.0,0.0,95,0.00,,---,0.00,VWS V14.01,2013-11-08 06:29:00,
2013-11-08 00:30:00,39.3,38.0,30.34,SSW,194,0.0,0.0,95,0.00,,,0.00,Wunderground v.1.15,2013-11-08 06:30:00,
2013-11-08 00:34:00,39.3,38.3,30.34,SSW,194,0.0,0.0,96,0.00,,---,0.00,VWS V14.01,2013-11-08 06:34:00,
2013-11-08 00:35:00,39.3,38.3,30.34,SSW,194,0.0,0.0,96,0.00,,,0.00,Wunderground v.1.15,2013-11-08 06:35:00,
2013-11-08 00:39:00,39.3,38.3,30.34,SSW,194,0.0,0.0,96,0.00,,---,0.00,VWS V14.01,2013-11-08 06:39:00,
2013-11-08 00:40:00,39.3,38.3,30.34,SSW,194,0.0,0.0,96,0.00,,,0.00,Wunderground v.1.15,2013-11-08 06:40:00,
2013-11-08 00:44:00,39.3,38.0,30.34,SSW,194,0.0,0.0,95,0.00,,---,0.00,VWS V14.01,2013-11-08 06:44:00,
2013-11-08 00:45:00,39.3,38.0,30.34,SSW,194,0.0,0.0,95,0.00,,,0.00,Wunderground v.1.15,2013-11-08 06:45:00,
2013-11-08 00:50:00,39.5,38.5,30.34,SSW,194,0.0,0.0,96,0.00,,,0.00,Wunderground v.1.15,2013-11-08 06:50:00,
2013-11-08 00:51:00,39.5,38.5,30.34,SSW,194,0.0,0.0,96,0.00,,---,0.00,VWS V14.01,2013-11-08 06:51:00,
2013-11-08 00:55:00,39.5,38.5,30.34,SSW,194,0.0,0.0,96,0.00,,,0.00,Wunderground v.1.15,2013-11-08 06:55:00,
2013-11-08 00:56:00,39.5,38.5,30.34,SSW,194,0.0,0.0,96,0.00,,---,0.00,VWS V14.01,2013-11-08 06:56:00,
2013-11-08 01:00:00,39.3,38.3,30.34,SSW,194,0.0,0.0,96,0.00,,,0.00,Wunderground v.1.15,2013-11-08 07:00:00,
2013-11-08 01:01:00,39.3,38.3,30.34,SSW,194,0.0,0.0,96,0.00,,---,0.00,VWS V14.01,2013-11-08 07:01:00,
2013-11-08 01:05:00,39.2,37.9,30.33,SSW,194,0.0,0.0,95,0.00,,,0.00,Wunderground v.1.15,2013-11-08 07:05:00,
2013-11-08 01:06:00,39.2,38.2,30.33,SSW,194,0.0,0.0,96,0.00,,---,0.00,VWS V14.01,2013-11-08 07:06:00,
2013-11-08 01:10:00,39.2,37.9,30.33,SSW,194,0.0,0.0,95,0.00,,,0.00,Wunderground v.1.15,2013-11-08 07:10:00,
2013-11-08 01:11:00,39.2,38.2,30.33,SSW,194,0.0,0.0,96,0.00,,---,0.00,VWS V14.01,2013-11-08 07:11:00,
2013-11-08 01:15:00,39.2,38.2,30.33,SSW,194,0.0,0.0,96,0.00,,,0.00,Wunderground v.1.15,2013-11-08 07:15:00,
2013-11-08 01:17:00,39.2,38.2,30.33,SSW,194,0.0,0.0,96,0.00,,---,0.00,VWS V14.01,2013-11-08 07:17:00,
2013-11-08 01:20:00,39.3,38.3,30.33,SSW,194,0.0,0.0,96,0.00,,,0.00,Wunderground v.1.15,2013-11-08 07:20:00,
2013-11-08 01:22:00,39.5,38.5,30.33,SSW,194,0.0,0.0,96,0.00,,---,0.00,VWS V14.01,2013-11-08 07:22:00,
2013-11-08 01:25:00,39.5,38.5,30.33,SSW,194,0.0,0.0,96,0.00,,,0.00,Wunderground v.1.15,2013-11-08 07:25:00,
2013-11-08 01:28:00,39.6,38.6,30.33,SSW,194,0.0,0.0,96,0.00,,---,0.00,VWS V14.01,2013-11-08 07:28:00,
2013-11-08 01:30:00,39.5,38.5,30.33,SSW,194,0.0,0.0,96,0.00,,,0.00,Wunderground v.1.15,2013-11-08 07:30:00,
2013-11-08 01:33:00,39.5,38.5,30.33,SSW,194,0.0,0.0,96,0.00,,---,0.00,VWS V14.01,2013-11-08 07:33:00,
2013-11-08 01:35:00,39.5,38.5,30.33,SSW,194,0.0,0.0,96,0.00,,,0.00,Wunderground v.1.15,2013-11-08 07:35:00,
2013-11-08 01:38:00,39.3,38.3,30.33,SSW,194,0.0,0.0,96,0.00,,---,0.00,VWS V14.01,2013-11-08 07:38:00,
2013-11-08 01:40:00,39.3,38.3,30.33,SSW,194,0.0,0.0,96,0.00,,,0.00,Wunderground v.1.15,2013-11-08 07:40:00,
2013-11-08 01:43:00,39.3,38.3,30.33,SSW,194,0.0,0.0,96,0.00,,---,0.00,VWS V14.01,2013-11-08 07:43:00,
2013-11-08 01:45:00,39.2,38.2,30.33,SSW,194,0.0,0.0,96,0.00,,,0.00,Wunderground v.1.15,2013-11-08 07:45:00,
2013-11-08 01:48:00,39.2,38.2,30.33,SSW,194,0.0,0.0,96,0.00,,---,0.00,VWS V14.01,2013-11-08 07:48:00,
2013-11-08 01:50:00,39.2,38.2,30.33,SSW,194,0.0,0.0,96,0.00,,,0.00,Wunderground v.1.15,2013-11-08 07:50:00,
2013-11-08 01:53:00,39.1,38.1,30.33,SSW,194,0.0,0.0,96,0.00,,---,0.00,VWS V14.01,2013-11-08 07:53:00,
2013-11-08 01:55:00,39.1,38.1,30.33,SSW,194,0.0,0.0,96,0.00,,,0.00,Wunderground v.1.15,2013-11-08 07:55:00,
2013-11-08 01:59:00,39.1,38.1,30.33,SSW,194,0.0,0.0,96,0.00,,---,0.00,VWS V14.01,2013-11-08 07:59:00,
2013-11-08 02:04:00,38.9,37.9,30.33,SSW,194,0.0,0.0,96,0.00,,---,0.00,VWS V14.01,2013-11-08 08:04:00,
2013-11-08 02:05:00,38.9,37.9,30.33,SSW,194,0.0,0.0,96,0.00,,,0.00,Wunderground v.1.15,2013-11-08 08:05:00,
2013-11-08 02:09:00,39.1,38.1,30.33,SSW,194,0.0,0.0,96,0.00,,---,0.00,VWS V14.01,2013-11-08 08:09:00,
2013-11-08 02:10:00,39.1,38.1,30.32,SSW,194,0.0,0.0,96,0.00,,,0.00,Wunderground v.1.15,2013-11-08 08:10:00,
2013-11-08 02:14:00,39.1,38.1,30.32,SSW,194,0.0,0.0,96,0.00,,---,0.00,VWS V14.01,2013-11-08 08:14:00,
2013-11-08 02:15:00,39.1,38.1,30.32,SSW,194,0.0,0.0,96,0.00,,,0.00,Wunderground v.1.15,2013-11-08 08:15:00,
2013-11-08 02:19:00,39.1,38.1,30.32,SSW,194,0.0,0.0,96,0.00,,---,0.00,VWS V14.01,2013-11-08 08:19:00,
2013-11-08 02:20:00,38.9,37.9,30.32,SSW,194,0.0,0.0,96,0.00,,,0.00,Wunderground v.1.15,2013-11-08 08:20:00,
2013-11-08 02:25:00,38.9,37.9,30.33,SSW,194,0.0,0.0,96,0.00,,,0.00,Wunderground v.1.15,2013-11-08 08:25:00,
2013-11-08 02:26:00,39.1,38.1,30.33,SSW,194,0.0,0.0,96,0.00,,---,0.00,VWS V14.01,2013-11-08 08:26:00,
2013-11-08 02:30:00,39.1,38.1,30.33,SSW,194,0.0,0.0,96,0.00,,,0.00,Wunderground v.1.15,2013-11-08 08:30:00,
2013-11-08 02:31:00,39.1,38.1,30.33,SSW,194,0.0,0.0,96,0.00,,---,0.00,VWS V14.01,2013-11-08 08:31:00,
2013-11-08 02:36:00,39.1,38.1,30.32,SSW,194,0.0,0.0,96,0.00,,---,0.00,VWS V14.01,2013-11-08 08:36:00,
2013-11-08 02:40:00,39.1,38.1,30.32,SSW,194,0.0,0.0,96,0.00,,,0.00,Wunderground v.1.15,2013-11-08 08:40:00,
2013-11-08 02:41:00,39.2,38.2,30.32,SSW,194,0.0,0.0,96,0.00,,---,0.00,VWS V14.01,2013-11-08 08:41:00,
2013-11-08 02:45:00,39.2,38.2,30.33,SSW,194,0.0,0.0,96,0.00,,,0.00,Wunderground v.1.15,2013-11-08 08:45:00,
2013-11-08 02:46:00,39.2,38.2,30.33,SSW,194,0.0,0.0,96,0.00,,---,0.00,VWS V14.01,2013-11-08 08:46:00,
2013-11-08 02:50:00,39.2,38.2,30.33,SSW,194,0.0,0.0,96,0.00,,,0.00,Wunderground v.1.15,2013-11-08 08:50:00,
2013-11-08 02:52:00,39.2,38.2,30.33,SSW,194,0.0,0.0,96,0.00,,---,0.00,VWS V14.01,2013-11-08 08:52:00,
2013-11-08 02:55:00,39.2,38.2,30.33,SSW,194,0.0,0.0,96,0.00,,,0.00,Wunderground v.1.15,2013-11-08 08:55:00,
2013-11-08 02:57:00,39.2,38.2,30.33,SSW,194,0.0,0.0,96,0.00,,---,0.00,VWS V14.01,2013-11-08 08:57:00,
2013-11-08 03:00:00,39.2,38.2,30.33,SSW,194,0.0,0.0,96,0.00,,,0.00,Wunderground v.1.15,2013-11-08 09:00:00,
2013-11-08 03:03:00,39.2,38.2,30.33,SSW,194,0.0,0.0,96,0.00,,---,0.00,VWS V14.01,2013-11-08 09:03:00,
2013-11-08 03:05:00,39.2,38.2,30.33,SSW,194,0.0,0.0,96,0.00,,,0.00,Wunderground v.1.15,2013-11-08 09:05:00,
2013-11-08 03:08:00,39.1,38.1,30.33,SSW,194,0.0,0.0,96,0.00,,---,0.00,VWS V14.01,2013-11-08 09:08:00,
2013-11-08 03:10:00,39.1,38.1,30.33,SSW,194,0.0,0.0,96,0.00,,,0.00,Wunderground v.1.15,2013-11-08 09:10:00,
2013-11-08 03:13:00,38.9,37.9,30.33,SSW,194,0.0,0.0,96,0.00,,---,0.00,VWS V14.01,2013-11-08 09:13:00,
2013-11-08 03:15:00,38.9,37.9,30.33,SSW,194,0.0,0.0,96,0.00,,,0.00,Wunderground v.1.15,2013-11-08 09:15:00,
2013-11-08 03:18:00,38.8,37.8,30.33,SSW,194,0.0,0.0,96,0.00,,---,0.00,VWS V14.01,2013-11-08 09:18:00,
2013-11-08 03:20:00,38.8,37.8,30.33,SSW,194,0.0,0.0,96,0.00,,,0.00,Wunderground v.1.15,2013-11-08 09:20:00,
2013-11-08 03:24:00,38.6,37.6,30.33,SSW,194,0.0,0.0,96,0.00,,---,0.00,VWS V14.01,2013-11-08 09:24:00,
2013-11-08 03:25:00,38.6,37.6,30.33,SSW,194,0.0,0.0,96,0.00,,,0.00,Wunderground v.1.15,2013-11-08 09:25:00,
2013-11-08 03:29:00,38.6,37.6,30.33,SSW,194,0.0,0.0,96,0.00,,---,0.00,VWS V14.01,2013-11-08 09:29:00,
2013-11-08 03:30:00,38.6,37.6,30.33,SSW,194,0.0,0.0,96,0.00,,,0.00,Wunderground v.1.15,2013-11-08 09:30:00,
2013-11-08 03:34:00,38.5,37.5,30.33,SSW,194,0.0,0.0,96,0.00,,---,0.00,VWS V14.01,2013-11-08 09:34:00,
2013-11-08 03:35:00,38.5,37.5,30.33,SSW,194,0.0,0.0,96,0.00,,,0.00,Wunderground v.1.15,2013-11-08 09:35:00,
2013-11-08 03:39:00,38.5,37.5,30.33,SSW,194,0.0,0.0,96,0.00,,---,0.00,VWS V14.01,2013-11-08 09:39:00,
2013-11-08 03:40:00,38.5,37.5,30.33,SSW,194,0.0,0.0,96,0.00,,,0.00,Wunderground v.1.15,2013-11-08 09:40:00,
2013-11-08 03:44:00,38.3,37.3,30.33,SSW,194,0.0,0.0,96,0.00,,---,0.00,VWS V14.01,2013-11-08 09:44:00,
2013-11-08 03:45:00,38.3,37.3,30.33,SSW,194,0.0,0.0,96,0.00,,,0.00,Wunderground v.1.15,2013-11-08 09:45:00,
2013-11-08 03:49:00,38.5,37.5,30.33,SSW,194,0.0,0.0,96,0.00,,---,0.00,VWS V14.01,2013-11-08 09:49:00,
2013-11-08 03:50:00,38.5,37.5,30.33,SSW,194,0.0,0.0,96,0.00,,,0.00,Wunderground v.1.15,2013-11-08 09:50:00,
2013-11-08 03:54:00,38.5,37.5,30.33,SSW,194,0.0,0.0,96,0.00,,---,0.00,VWS V14.01,2013-11-08 09:54:00,
2013-11-08 03:59:00,38.5,37.5,30.32,SSW,194,0.0,0.0,96,0.00,,---,0.00,VWS V14.01,2013-11-08 09:59:00,
2013-11-08 04:00:00,38.5,37.5,30.32,SSW,194,0.0,0.0,96,0.00,,,0.00,Wunderground v.1.15,2013-11-08 10:00:00,
2013-11-08 04:05:00,38.5,37.5,30.32,SSW,194,0.0,0.0,96,0.00,,---,0.00,VWS V14.01,2013-11-08 10:05:00,
2013-11-08 04:10:00,38.5,37.5,30.32,SSW,194,0.0,0.0,96,0.00,,---,0.00,VWS V14.01,2013-11-08 10:10:00,
2013-11-08 04:15:00,38.5,37.5,30.32,SSW,194,0.0,0.0,96,0.00,,---,0.00,VWS V14.01,2013-11-08 10:15:00,
2013-11-08 04:20:00,38.3,37.3,30.32,SSW,194,0.0,0.0,96,0.00,,---,0.00,VWS V14.01,2013-11-08 10:20:00,
2013-11-08 04:25:00,38.3,37.3,30.32,SSW,194,0.0,0.0,96,0.00,,---,0.00,VWS V14.01,2013-11-08 10:25:00,
2013-11-08 04:30:00,38.2,37.2,30.32,SSW,194,0.0,0.0,96,0.00,,,0.00,Wunderground v.1.15,2013-11-08 10:30:00,
2013-11-08 04:35:00,38.2,37.2,30.32,SSW,194,0.0,0.0,96,0.00,,,0.00,Wunderground v.1.15,2013-11-08 10:35:00,
2013-11-08 04:36:00,38.2,37.2,30.32,SSW,194,0.0,0.0,96,0.00,,---,0.00,VWS V14.01,2013-11-08 10:36:00,
2013-11-08 04:40:00,38.0,37.0,30.32,SSW,194,0.0,0.0,96,0.00,,,0.00,Wunderground v.1.15,2013-11-08 10:40:00,
2013-11-08 04:41:00,38.0,37.0,30.32,SSW,194,0.0,0.0,96,0.00,,---,0.00,VWS V14.01,2013-11-08 10:41:00,
2013-11-08 04:45:00,37.9,36.9,30.32,SSW,194,0.0,0.0,96,0.00,,,0.00,Wunderground v.1.15,2013-11-08 10:45:00,
2013-11-08 04:47:00,37.9,36.9,30.32,SSW,194,0.0,0.0,96,0.00,,---,0.00,VWS V14.01,2013-11-08 10:47:00,
2013-11-08 04:50:00,37.8,36.8,30.32,SSW,194,0.0,0.0,96,0.00,,,0.00,Wunderground v.1.15,2013-11-08 10:50:00,
2013-11-08 04:52:00,37.8,36.8,30.32,SSW,194,0.0,0.0,96,0.00,,---,0.00,VWS V14.01,2013-11-08 10:52:00,
2013-11-08 04:55:00,37.6,36.6,30.32,SSW,194,0.0,0.0,96,0.00,,,0.00,Wunderground v.1.15,2013-11-08 10:55:00,
2013-11-08 04:57:00,37.6,36.6,30.32,SSW,194,0.0,0.0,96,0.00,,---,0.00,VWS V14.01,2013-11-08 10:57:00,
2013-11-08 05:00:00,37.5,36.5,30.32,SSW,194,0.0,0.0,96,0.00,,,0.00,Wunderground v.1.15,2013-11-08 11:00:00,
2013-11-08 05:02:00,37.5,36.5,30.32,SSW,194,0.0,0.0,96,0.00,,---,0.00,VWS V14.01,2013-11-08 11:02:00,
2013-11-08 05:05:00,37.6,36.6,30.32,SSW,194,0.0,0.0,96,0.00,,,0.00,Wunderground v.1.15,2013-11-08 11:05:00,
2013-11-08 05:07:00,37.5,36.5,30.32,SSW,194,0.0,0.0,96,0.00,,---,0.00,VWS V14.01,2013-11-08 11:07:00,
2013-11-08 05:10:00,37.5,36.5,30.32,SSW,194,0.0,0.0,96,0.00,,,0.00,Wunderground v.1.15,2013-11-08 11:10:00,
2013-11-08 05:12:00,37.5,36.5,30.32,SSW,194,0.0,0.0,96,0.00,,---,0.00,VWS V14.01,2013-11-08 11:12:00,
2013-11-08 05:15:00,37.3,36.3,30.32,SSW,194,0.0,0.0,96,0.00,,,0.00,Wunderground v.1.15,2013-11-08 11:15:00,
2013-11-08 05:17:00,37.3,36.3,30.32,SSW,194,0.0,0.0,96,0.00,,---,0.00,VWS V14.01,2013-11-08 11:17:00,
2013-11-08 05:20:00,37.2,36.2,30.32,SSW,194,0.0,0.0,96,0.00,,,0.00,Wunderground v.1.15,2013-11-08 11:20:00,
2013-11-08 05:22:00,37.2,36.2,30.33,SSW,194,0.0,0.0,96,0.00,,---,0.00,VWS V14.01,2013-11-08 11:22:00,
2013-11-08 05:25:00,37.0,36.0,30.33,SSW,194,0.0,0.0,96,0.00,,,0.00,Wunderground v.1.15,2013-11-08 11:25:00,
2013-11-08 05:28:00,37.0,36.0,30.33,SSW,194,0.0,0.0,96,0.00,,---,0.00,VWS V14.01,2013-11-08 11:28:00,
2013-11-08 05:30:00,36.9,35.9,30.33,SSW,194,0.0,0.0,96,0.00,,,0.00,Wunderground v.1.15,2013-11-08 11:30:00,
2013-11-08 05:33:00,36.9,35.9,30.32,SSW,194,0.0,0.0,96,0.00,,---,0.00,VWS V14.01,2013-11-08 11:33:00,
2013-11-08 05:35:00,36.8,35.8,30.32,SSW,194,0.0,0.0,96,0.00,,,0.00,Wunderground v.1.15,2013-11-08 11:35:00,
2013-11-08 05:38:00,36.8,35.8,30.33,SSW,194,0.0,0.0,96,0.00,,---,0.00,VWS V14.01,2013-11-08 11:38:00,
2013-11-08 05:43:00,36.6,35.6,30.33,SSW,194,0.0,0.0,96,0.00,,---,0.00,VWS V14.01,2013-11-08 11:43:00,
2013-11-08 05:45:00,36.6,35.6,30.32,SSW,194,0.0,0.0,96,0.00,,,0.00,Wunderground v.1.15,2013-11-08 11:45:00,
2013-11-08 05:48:00,36.6,35.6,30.33,SSW,194,0.0,0.0,96,0.00,,---,0.00,VWS V14.01,2013-11-08 11:48:00,
2013-11-08 05:50:00,36.6,35.6,30.32,SSW,194,0.0,0.0,96,0.00,,,0.00,Wunderground v.1.15,2013-11-08 11:50:00,
2013-11-08 05:54:00,36.5,35.5,30.32,SSW,194,0.0,0.0,96,0.00,,---,0.00,VWS V14.01,2013-11-08 11:54:00,
2013-11-08 05:55:00,36.5,35.5,30.32,SSW,194,0.0,0.0,96,0.00,,,0.00,Wunderground v.1.15,2013-11-08 11:55:00,
2013-11-08 05:59:00,36.5,35.5,30.32,SSW,194,0.0,0.0,96,0.00,,---,0.00,VWS V14.01,2013-11-08 11:59:00,
2013-11-08 06:00:00,36.3,35.3,30.32,SSW,194,0.0,0.0,96,0.00,,,0.00,Wunderground v.1.15,2013-11-08 12:00:00,
2013-11-08 06:04:00,36.3,35.3,30.33,SSW,194,0.0,0.0,96,0.00,,---,0.00,VWS V14.01,2013-11-08 12:04:00,
2013-11-08 06:05:00,36.2,35.2,30.33,SSW,194,0.0,0.0,96,0.00,,,0.00,Wunderground v.1.15,2013-11-08 12:05:00,
2013-11-08 06:09:00,36.2,35.2,30.33,SSW,194,0.0,0.0,96,0.00,,---,0.00,VWS V14.01,2013-11-08 12:09:00,
2013-11-08 06:10:00,36.2,35.2,30.33,SSW,194,0.0,0.0,96,0.00,,,0.00,Wunderground v.1.15,2013-11-08 12:10:00,
2013-11-08 06:14:00,36.0,35.0,30.33,SSW,194,0.0,0.0,96,0.00,,---,0.00,VWS V14.01,2013-11-08 12:14:00,
2013-11-08 06:15:00,36.0,35.0,30.33,SSW,194,0.0,0.0,96,0.00,,,0.00,Wunderground v.1.15,2013-11-08 12:15:00,
2013-11-08 06:19:00,35.9,34.9,30.33,SSW,194,0.0,0.0,96,0.00,,---,0.00,VWS V14.01,2013-11-08 12:19:00,
2013-11-08 06:20:00,35.9,34.9,30.33,SSW,194,0.0,0.0,96,0.00,,,0.00,Wunderground v.1.15,2013-11-08 12:20:00,
2013-11-08 06:25:00,35.8,34.8,30.33,SSW,194,0.0,0.0,96,0.00,,,0.00,Wunderground v.1.15,2013-11-08 12:25:00,
2013-11-08 06:30:00,35.6,34.6,30.33,SSW,194,0.0,0.0,96,0.00,,,0.00,Wunderground v.1.15,2013-11-08 12:30:00,
2013-11-08 06:35:00,35.6,34.6,30.33,SSW,194,0.0,0.0,96,0.00,,,0.00,Wunderground v.1.15,2013-11-08 12:35:00,
2013-11-08 06:40:00,35.3,34.3,30.33,SSW,194,0.0,0.0,96,0.00,,,0.00,Wunderground v.1.15,2013-11-08 12:40:00,
2013-11-08 06:41:00,35.3,34.3,30.33,SSW,194,0.0,0.0,96,0.00,,---,0.00,VWS V14.01,2013-11-08 12:41:00,
2013-11-08 06:46:00,35.3,34.3,30.33,SSW,194,0.0,0.0,96,0.00,,---,0.00,VWS V14.01,2013-11-08 12:46:00,
2013-11-08 06:50:00,35.3,34.3,30.33,SSW,194,0.0,0.0,96,0.00,,,0.00,Wunderground v.1.15,2013-11-08 12:50:00,
2013-11-08 06:51:00,35.3,34.3,30.33,SSW,194,0.0,0.0,96,0.00,,---,0.00,VWS V14.01,2013-11-08 12:51:00,
2013-11-08 06:55:00,35.3,34.3,30.33,SSW,194,0.0,0.0,96,0.00,,,0.00,Wunderground v.1.15,2013-11-08 12:55:00,
2013-11-08 06:56:00,35.3,34.3,30.33,SSW,194,0.0,0.0,96,0.00,,---,0.00,VWS V14.01,2013-11-08 12:56:00,
2013-11-08 07:00:00,35.3,34.3,30.33,SSW,194,0.0,0.0,96,0.00,,,0.00,Wunderground v.1.15,2013-11-08 13:00:00,
2013-11-08 07:01:00,35.3,34.3,30.33,SSW,194,0.0,0.0,96,0.00,,---,0.00,VWS V14.01,2013-11-08 13:01:00,
2013-11-08 07:05:00,35.3,34.3,30.33,SSW,194,0.0,0.0,96,0.00,,,0.00,Wunderground v.1.15,2013-11-08 13:05:00,
2013-11-08 07:06:00,35.3,34.3,30.33,SSW,194,0.0,0.0,96,0.00,,---,0.00,VWS V14.01,2013-11-08 13:06:00,
2013-11-08 07:10:00,35.3,34.3,30.34,SSW,194,0.0,0.0,96,0.00,,,0.00,Wunderground v.1.15,2013-11-08 13:10:00,
2013-11-08 07:11:00,35.3,34.3,30.34,SSW,194,0.0,0.0,96,0.00,,---,0.00,VWS V14.01,2013-11-08 13:11:00,
2013-11-08 07:15:00,35.5,34.5,30.34,SSW,194,0.0,0.0,96,0.00,,,0.00,Wunderground v.1.15,2013-11-08 13:15:00,
2013-11-08 07:17:00,35.6,34.6,30.34,SSW,194,0.0,0.0,96,0.00,,---,0.00,VWS V14.01,2013-11-08 13:17:00,
2013-11-08 07:20:00,35.8,34.8,30.33,SSW,194,0.0,0.0,96,0.00,,,0.00,Wunderground v.1.15,2013-11-08 13:20:00,
2013-11-08 07:22:00,35.9,34.9,30.33,SSW,194,0.0,0.0,96,0.00,,---,0.00,VWS V14.01,2013-11-08 13:22:00,
2013-11-08 07:25:00,36.2,35.2,30.33,SSW,194,0.0,0.0,96,0.00,,,0.00,Wunderground v.1.15,2013-11-08 13:25:00,
2013-11-08 07:27:00,36.5,35.7,30.33,SSW,194,0.0,0.0,97,0.00,,---,0.00,VWS V14.01,2013-11-08 13:27:00,
2013-11-08 07:30:00,36.8,36.0,30.33,SSW,194,0.0,0.0,97,0.00,,,0.00,Wunderground v.1.15,2013-11-08 13:30:00,
2013-11-08 07:33:00,37.0,36.2,30.33,SSW,194,0.0,0.0,97,0.00,,---,0.00,VWS V14.01,2013-11-08 13:33:00,
2013-11-08 07:35:00,37.2,36.4,30.34,SSW,194,0.0,0.0,97,0.00,,,0.00,Wunderground v.1.15,2013-11-08 13:35:00,
2013-11-08 07:38:00,37.8,37.0,30.34,SSW,194,0.0,0.0,97,0.00,,---,0.00,VWS V14.01,2013-11-08 13:38:00,
2013-11-08 07:40:00,38.6,37.8,30.34,SSW,194,0.0,0.0,97,0.00,,,0.00,Wunderground v.1.15,2013-11-08 13:40:00,
2013-11-08 07:43:00,39.5,39.0,30.34,SSW,194,0.0,0.0,98,0.00,,---,0.00,VWS V14.01,2013-11-08 13:43:00,
2013-11-08 07:45:00,40.2,39.7,30.34,SSW,194,0.0,0.0,98,0.00,,,0.00,Wunderground v.1.15,2013-11-08 13:45:00,
2013-11-08 07:48:00,40.9,40.4,30.34,SSW,194,0.0,0.0,98,0.00,,---,0.00,VWS V14.01,2013-11-08 13:48:00,
2013-11-08 07:50:00,41.8,41.3,30.34,SSW,194,0.0,0.0,98,0.00,,,0.00,Wunderground v.1.15,2013-11-08 13:50:00,
2013-11-08 07:53:00,42.5,42.0,30.34,SSW,194,0.0,0.0,98,0.00,,---,0.00,VWS V14.01,2013-11-08 13:53:00,
2013-11-08 07:55:00,42.6,42.1,30.34,SSW,194,0.0,0.0,98,0.00,,,0.00,Wunderground v.1.15,2013-11-08 13:55:00,
2013-11-08 07:58:00,43.2,42.7,30.34,SSW,194,0.0,0.0,98,0.00,,---,0.00,VWS V14.01,2013-11-08 13:58:00,
2013-11-08 08:00:00,43.3,42.8,30.34,SSW,194,0.0,0.0,98,0.00,,,0.00,Wunderground v.1.15,2013-11-08 14:00:00,
2013-11-08 08:04:00,44.3,43.8,30.34,SSW,194,0.0,0.0,98,0.00,,---,0.00,VWS V14.01,2013-11-08 14:04:00,
2013-11-08 08:05:00,44.5,44.0,30.34,SSW,194,0.0,0.0,98,0.00,,,0.00,Wunderground v.1.15,2013-11-08 14:05:00,
2013-11-08 08:09:00,45.1,44.6,30.34,SSW,194,0.0,0.0,98,0.00,,---,0.00,VWS V14.01,2013-11-08 14:09:00,
2013-11-08 08:14:00,45.8,45.3,30.34,SSW,194,0.0,0.0,98,0.00,,---,0.00,VWS V14.01,2013-11-08 14:14:00,
2013-11-08 08:15:00,46.0,45.5,30.34,SSW,194,0.0,0.0,98,0.00,,,0.00,Wunderground v.1.15,2013-11-08 14:15:00,
2013-11-08 08:19:00,46.2,45.7,30.34,SSW,194,0.0,0.0,98,0.00,,---,0.00,VWS V14.01,2013-11-08 14:19:00,
2013-11-08 08:20:00,46.2,45.7,30.34,SSW,194,0.0,0.0,98,0.00,,,0.00,Wunderground v.1.15,2013-11-08 14:20:00,
2013-11-08 08:24:00,46.5,46.0,30.34,SSW,194,0.0,0.0,98,0.00,,---,0.00,VWS V14.01,2013-11-08 14:24:00,
2013-11-08 08:25:00,46.7,46.2,30.34,SSW,194,0.0,0.0,98,0.00,,,0.00,Wunderground v.1.15,2013-11-08 14:25:00,
2013-11-08 08:29:00,47.4,46.9,30.34,SSW,194,0.0,0.0,98,0.00,,---,0.00,VWS V14.01,2013-11-08 14:29:00,
2013-11-08 08:30:00,47.4,46.9,30.34,SSW,194,0.0,0.0,98,0.00,,,0.00,Wunderground v.1.15,2013-11-08 14:30:00,
2013-11-08 08:35:00,47.6,47.1,30.34,SSW,194,0.0,1.0,98,0.00,,---,0.00,VWS V14.01,2013-11-08 14:35:00,
2013-11-08 08:40:00,47.7,47.2,30.34,SSW,194,0.0,0.0,98,0.00,,---,0.00,VWS V14.01,2013-11-08 14:40:00,
2013-11-08 08:45:00,48.0,47.5,30.34,SSW,194,0.0,2.0,98,0.00,,---,0.00,VWS V14.01,2013-11-08 14:45:00,
2013-11-08 08:50:00,48.5,48.0,30.34,SSW,194,0.0,0.0,98,0.00,,,0.00,Wunderground v.1.15,2013-11-08 14:50:00,
2013-11-08 08:55:00,48.8,48.0,30.34,SSW,194,0.0,0.0,97,0.00,,,0.00,Wunderground v.1.15,2013-11-08 14:55:00,
2013-11-08 09:00:00,48.9,48.1,30.34,SSW,194,0.0,1.0,97,0.00,,,0.00,Wunderground v.1.15,2013-11-08 15:00:00,
2013-11-08 09:01:00,48.9,48.1,30.34,SSW,194,0.0,1.0,97,0.00,,---,0.00,VWS V14.01,2013-11-08 15:01:00,
2013-11-08 09:05:00,48.9,48.1,30.34,SSW,194,0.0,1.0,97,0.00,,,0.00,Wunderground v.1.15,2013-11-08 15:05:00,
2013-11-08 09:06:00,48.9,48.1,30.34,SSW,194,0.0,1.0,97,0.00,,---,0.00,VWS V14.01,2013-11-08 15:06:00,
2013-11-08 09:10:00,50.2,49.4,30.34,SSW,194,0.0,0.0,97,0.00,,,0.00,Wunderground v.1.15,2013-11-08 15:10:00,
2013-11-08 09:11:00,50.2,49.4,30.34,SSW,194,0.0,0.0,97,0.00,,---,0.00,VWS V14.01,2013-11-08 15:11:00,
2013-11-08 09:15:00,50.2,49.4,30.34,SSW,194,2.0,2.0,97,0.00,,,0.00,Wunderground v.1.15,2013-11-08 15:15:00,
2013-11-08 09:16:00,50.2,49.4,30.34,SSW,194,2.0,2.0,97,0.00,,---,0.00,VWS V14.01,2013-11-08 15:16:00,
2013-11-08 09:21:00,51.1,50.3,30.34,SSW,194,1.0,2.0,97,0.00,,---,0.00,VWS V14.01,2013-11-08 15:21:00,
2013-11-08 09:25:00,51.1,50.3,30.34,ESE,104,1.0,2.0,97,0.00,,,0.00,Wunderground v.1.15,2013-11-08 15:25:00,
2013-11-08 09:26:00,51.1,50.3,30.34,ESE,104,1.0,2.0,97,0.00,,---,0.00,VWS V14.01,2013-11-08 15:26:00,
2013-11-08 09:30:00,52.3,50.0,30.34,ESE,105,1.0,2.0,92,0.00,,,0.00,Wunderground v.1.15,2013-11-08 15:30:00,
2013-11-08 09:31:00,52.3,50.0,30.34,ESE,105,1.0,2.0,92,0.00,,---,0.00,VWS V14.01,2013-11-08 15:31:00,
2013-11-08 09:35:00,52.9,50.3,30.34,ENE,78,1.0,5.0,91,0.00,,,0.00,Wunderground v.1.15,2013-11-08 15:35:00,
2013-11-08 09:36:00,53.1,50.5,30.34,ENE,78,3.0,5.0,91,0.00,,---,0.00,VWS V14.01,2013-11-08 15:36:00,
2013-11-08 09:40:00,53.8,51.2,30.34,ENE,77,2.0,2.0,91,0.00,,,0.00,Wunderground v.1.15,2013-11-08 15:40:00,
2013-11-08 09:41:00,53.9,51.3,30.34,ENE,78,0.0,2.0,91,0.00,,---,0.00,VWS V14.01,2013-11-08 15:41:00,
2013-11-08 09:45:00,54.5,51.9,30.33,ENE,77,2.0,3.0,91,0.00,,,0.00,Wunderground v.1.15,2013-11-08 15:45:00,
2013-11-08 09:47:00,54.7,52.1,30.33,ENE,77,0.0,5.0,91,0.01,,---,0.01,VWS V14.01,2013-11-08 15:47:00,
2013-11-08 09:50:00,55.1,52.5,30.33,ENE,75,1.0,2.0,91,0.00,,,0.01,Wunderground v.1.15,2013-11-08 15:50:00,
2013-11-08 09:52:00,55.3,46.8,30.33,ENE,64,5.0,5.0,73,0.01,,---,0.01,VWS V14.01,2013-11-08 15:52:00,
2013-11-08 09:55:00,55.6,47.1,30.33,ENE,64,2.0,2.0,73,0.00,,,0.01,Wunderground v.1.15,2013-11-08 15:55:00,
2013-11-08 09:57:00,55.9,46.7,30.33,ENE,60,1.0,5.0,71,0.01,,---,0.01,VWS V14.01,2013-11-08 15:57:00,
2013-11-08 10:00:00,56.2,46.9,30.33,ENE,59,2.0,2.0,71,0.00,,,0.01,Wunderground v.1.15,2013-11-08 16:00:00,
2013-11-08 10:02:00,56.2,46.9,30.33,ENE,60,1.0,2.0,71,0.01,,---,0.01,VWS V14.01,2013-11-08 16:02:00,
2013-11-08 10:05:00,56.2,46.9,30.33,ENE,68,2.0,2.0,71,0.00,,,0.01,Wunderground v.1.15,2013-11-08 16:05:00,
2013-11-08 10:08:00,57.3,48.0,30.32,ENE,67,3.0,3.0,71,0.01,,---,0.01,VWS V14.01,2013-11-08 16:08:00,
2013-11-08 10:10:00,57.3,48.0,30.32,ENE,68,2.0,2.0,71,0.00,,,0.01,Wunderground v.1.15,2013-11-08 16:10:00,
2013-11-08 10:13:00,58.1,48.8,30.32,ENE,75,1.0,2.0,71,0.01,,---,0.01,VWS V14.01,2013-11-08 16:13:00,
2013-11-08 10:15:00,58.1,48.7,30.32,ENE,77,2.0,2.0,71,0.00,,,0.01,Wunderground v.1.15,2013-11-08 16:15:00,
2013-11-08 10:18:00,58.7,49.3,30.32,ENE,75,5.0,5.0,71,0.01,,---,0.01,VWS V14.01,2013-11-08 16:18:00,
2013-11-08 10:23:00,59.5,46.5,30.32,NE,54,1.0,2.0,62,0.01,,---,0.01,VWS V14.01,2013-11-08 16:23:00,
2013-11-08 10:25:00,59.8,46.7,30.32,SSE,162,2.0,3.0,62,0.00,,,0.01,Wunderground v.1.15,2013-11-08 16:25:00,
2013-11-08 10:28:00,59.9,46.9,30.32,South,187,3.0,7.0,62,0.01,,---,0.01,VWS V14.01,2013-11-08 16:28:00,
2013-11-08 10:30:00,59.9,46.8,30.31,SSE,150,2.0,2.0,62,0.00,,,0.01,Wunderground v.1.15,2013-11-08 16:30:00,
2013-11-08 10:33:00,60.5,47.4,30.32,South,190,5.0,5.0,62,0.01,,---,0.01,VWS V14.01,2013-11-08 16:33:00,
2013-11-08 10:35:00,60.5,47.4,30.32,South,190,3.0,5.0,62,0.00,,,0.01,Wunderground v.1.15,2013-11-08 16:35:00,
2013-11-08 10:39:00,60.5,47.4,30.31,ENE,59,6.0,6.0,62,0.01,,---,0.01,VWS V14.01,2013-11-08 16:39:00,
2013-11-08 10:44:00,60.7,47.6,30.31,SE,143,0.0,3.0,62,0.01,,---,0.01,VWS V14.01,2013-11-08 16:44:00,
2013-11-08 10:45:00,60.7,43.0,30.31,SSW,197,3.0,3.0,52,0.00,,,0.01,Wunderground v.1.15,2013-11-08 16:45:00,
2013-11-08 10:49:00,61.2,43.5,30.31,SSE,164,7.0,7.0,52,0.01,,---,0.01,VWS V14.01,2013-11-08 16:49:00,
2013-11-08 10:50:00,61.2,43.4,30.31,South,186,3.0,3.0,52,0.00,,,0.01,Wunderground v.1.15,2013-11-08 16:50:00,
2013-11-08 10:54:00,61.2,43.5,30.31,SE,138,6.0,7.0,52,0.00,,---,0.01,VWS V14.01,2013-11-08 16:54:00,
2013-11-08 10:55:00,61.2,43.4,30.31,South,177,3.0,3.0,52,0.00,,,0.01,Wunderground v.1.15,2013-11-08 16:55:00,
2013-11-08 10:59:00,61.3,43.5,30.31,NE,39,1.0,7.0,52,0.00,,---,0.01,VWS V14.01,2013-11-08 16:59:00,
2013-11-08 11:00:00,61.3,43.5,30.31,NE,39,3.0,3.0,52,0.00,,,0.01,Wunderground v.1.15,2013-11-08 17:00:00,
2013-11-08 11:04:00,61.6,43.8,30.30,East,85,5.0,5.0,52,0.00,,---,0.01,VWS V14.01,2013-11-08 17:04:00,
2013-11-08 11:05:00,61.6,43.8,30.30,East,85,3.0,5.0,52,0.00,,,0.01,Wunderground v.1.15,2013-11-08 17:05:00,
2013-11-08 11:09:00,62.0,42.1,30.30,SE,145,5.0,7.0,48,0.00,,---,0.01,VWS V14.01,2013-11-08 17:09:00,
2013-11-08 11:10:00,62.0,42.1,30.30,South,176,3.0,3.0,48,0.00,,,0.01,Wunderground v.1.15,2013-11-08 17:10:00,
2013-11-08 11:15:00,62.1,42.2,30.30,SE,135,2.0,6.0,48,0.00,,---,0.01,VWS V14.01,2013-11-08 17:15:00,
2013-11-08 11:20:00,62.6,43.2,30.29,South,179,2.0,2.0,49,0.00,,---,0.01,VWS V14.01,2013-11-08 17:20:00,
2013-11-08 11:25:00,62.6,43.2,30.29,East,101,3.0,5.0,49,0.00,,---,0.01,VWS V14.01,2013-11-08 17:25:00,
2013-11-08 11:30:00,62.9,41.8,30.29,South,191,5.0,5.0,46,0.00,,---,0.01,VWS V14.01,2013-11-08 17:30:00,
2013-11-08 11:35:00,63.1,42.0,30.28,ENE,60,2.0,6.0,46,0.00,,---,0.01,VWS V14.01,2013-11-08 17:35:00,
2013-11-08 11:40:00,63.1,43.6,30.28,ENE,71,3.0,3.0,49,0.00,,,0.01,Wunderground v.1.15,2013-11-08 17:40:00,
2013-11-08 11:45:00,63.7,45.2,30.28,ESE,121,3.0,3.0,51,0.00,,,0.01,Wunderground v.1.15,2013-11-08 17:45:00,
2013-11-08 11:46:00,63.7,45.2,30.28,ESE,121,3.0,8.0,51,0.00,,---,0.01,VWS V14.01,2013-11-08 17:46:00,
2013-11-08 11:51:00,63.7,43.1,30.27,ENE,78,0.0,0.0,47,0.00,,---,0.01,VWS V14.01,2013-11-08 17:51:00,
2013-11-08 11:55:00,64.0,43.4,30.27,SE,139,2.0,3.0,47,0.00,,,0.01,Wunderground v.1.15,2013-11-08 17:55:00,
2013-11-08 11:56:00,64.0,43.4,30.27,South,191,2.0,5.0,47,0.00,,---,0.01,VWS V14.01,2013-11-08 17:56:00,
2013-11-08 12:00:00,64.3,44.7,30.27,ENE,70,2.0,2.0,49,0.00,,,0.01,Wunderground v.1.15,2013-11-08 18:00:00,
2013-11-08 12:01:00,64.3,44.8,30.26,ENE,70,1.0,1.0,49,0.00,,---,0.01,VWS V14.01,2013-11-08 18:01:00,
2013-11-08 12:05:00,64.3,42.5,30.26,South,170,4.0,7.0,45,0.00,,,0.01,Wunderground v.1.15,2013-11-08 18:05:00,
2013-11-08 12:06:00,64.3,42.5,30.26,SSE,159,6.0,10.0,45,0.00,,---,0.01,VWS V14.01,2013-11-08 18:06:00,
2013-11-08 12:10:00,64.3,43.1,30.26,South,186,4.0,4.0,46,0.00,,,0.01,Wunderground v.1.15,2013-11-08 18:10:00,
2013-11-08 12:11:00,64.3,43.1,30.26,South,183,2.0,2.0,46,0.00,,---,0.01,VWS V14.01,2013-11-08 18:11:00,
2013-11-08 12:15:00,64.7,42.9,30.26,SSE,153,4.0,4.0,45,0.00,,,0.01,Wunderground v.1.15,2013-11-08 18:15:00,
2013-11-08 12:16:00,64.8,43.0,30.25,SSE,153,2.0,7.0,45,0.00,,---,0.01,VWS V14.01,2013-11-08 18:16:00,
2013-11-08 12:20:00,65.0,43.1,30.25,ENE,68,4.0,4.0,45,0.00,,,0.01,Wunderground v.1.15,2013-11-08 18:20:00,
2013-11-08 12:21:00,65.0,43.2,30.25,ENE,68,1.0,7.0,45,0.00,,---,0.01,VWS V14.01,2013-11-08 18:21:00,
2013-11-08 12:25:00,65.2,43.3,30.25,SSE,150,3.0,4.0,45,0.00,,,0.01,Wunderground v.1.15,2013-11-08 18:25:00,
2013-11-08 12:27:00,65.5,43.6,30.25,SSW,208,3.0,7.0,45,0.00,,---,0.01,VWS V14.01,2013-11-08 18:27:00,
2013-11-08 12:30:00,65.5,43.6,30.25,South,171,2.0,7.0,45,0.00,,,0.01,Wunderground v.1.15,2013-11-08 18:30:00,
2013-11-08 12:32:00,65.3,43.4,30.24,NE,43,3.0,7.0,45,0.00,,---,0.01,VWS V14.01,2013-11-08 18:32:00,
2013-11-08 12:35:00,65.0,43.1,30.24,NE,53,3.0,7.0,45,0.00,,,0.01,Wunderground v.1.15,2013-11-08 18:35:00,
2013-11-08 12:37:00,65.0,43.2,30.24,ENE,70,7.0,7.0,45,0.00,,---,0.01,VWS V14.01,2013-11-08 18:37:00,
2013-11-08 12:40:00,65.0,42.5,30.24,South,180,3.0,3.0,44,0.00,,,0.01,Wunderground v.1.15,2013-11-08 18:40:00,
2013-11-08 12:42:00,65.5,43.0,30.24,SE,139,6.0,6.0,44,0.00,,---,0.01,VWS V14.01,2013-11-08 18:42:00,
2013-11-08 12:45:00,65.6,43.1,30.24,NE,36,3.0,3.0,44,0.00,,,0.01,Wunderground v.1.15,2013-11-08 18:45:00,
2013-11-08 12:47:00,66.0,42.9,30.23,SSW,194,6.0,6.0,43,0.00,,---,0.01,VWS V14.01,2013-11-08 18:47:00,
2013-11-08 12:50:00,66.0,42.9,30.23,SSE,152,3.0,10.0,43,0.00,,,0.01,Wunderground v.1.15,2013-11-08 18:50:00,
2013-11-08 12:52:00,66.0,45.2,30.23,SSE,167,2.0,10.0,47,0.00,,---,0.01,VWS V14.01,2013-11-08 18:52:00,
2013-11-08 12:55:00,66.1,45.3,30.23,SSW,198,4.0,10.0,47,0.00,,,0.01,Wunderground v.1.15,2013-11-08 18:55:00,
2013-11-08 12:57:00,66.1,45.3,30.23,SSW,200,6.0,10.0,47,0.00,,---,0.01,VWS V14.01,2013-11-08 18:57:00,
2013-11-08 13:00:00,65.6,44.8,30.23,East,88,5.0,7.0,47,0.00,,,0.01,Wunderground v.1.15,2013-11-08 19:00:00,
2013-11-08 13:02:00,65.3,44.6,30.23,East,94,2.0,8.0,47,0.00,,---,0.01,VWS V14.01,2013-11-08 19:02:00,
2013-11-08 13:05:00,65.3,44.5,30.22,ESE,122,5.0,7.0,47,0.00,,,0.01,Wunderground v.1.15,2013-11-08 19:05:00,
2013-11-08 13:07:00,65.5,44.8,30.22,South,170,5.0,8.0,47,0.00,,---,0.01,VWS V14.01,2013-11-08 19:07:00,
2013-11-08 13:10:00,65.5,44.7,30.22,NE,35,4.0,4.0,47,0.00,,,0.01,Wunderground v.1.15,2013-11-08 19:10:00,
2013-11-08 13:12:00,65.5,44.8,30.22,ENE,64,2.0,3.0,47,0.00,,---,0.01,VWS V14.01,2013-11-08 19:12:00,
2013-11-08 13:15:00,65.5,44.7,30.22,ENE,63,3.0,4.0,47,0.00,,,0.01,Wunderground v.1.15,2013-11-08 19:15:00,
2013-11-08 13:17:00,65.6,44.8,30.22,SSE,166,6.0,7.0,47,0.00,,---,0.01,VWS V14.01,2013-11-08 19:17:00,
2013-11-08 13:20:00,66.0,45.2,30.22,ENE,60,3.0,3.0,47,0.00,,,0.01,Wunderground v.1.15,2013-11-08 19:20:00,
2013-11-08 13:22:00,66.0,41.7,30.22,ENE,57,2.0,6.0,41,0.00,,---,0.01,VWS V14.01,2013-11-08 19:22:00,
2013-11-08 13:25:00,66.0,41.6,30.21,SSE,164,3.0,3.0,41,0.00,,,0.01,Wunderground v.1.15,2013-11-08 19:25:00,
2013-11-08 13:27:00,66.1,41.1,30.21,NE,53,6.0,7.0,40,0.00,,---,0.01,VWS V14.01,2013-11-08 19:27:00,
2013-11-08 13:30:00,65.8,40.8,30.21,NE,51,4.0,4.0,40,0.00,,,0.01,Wunderground v.1.15,2013-11-08 19:30:00,
2013-11-08 13:32:00,65.8,40.8,30.21,SSE,147,1.0,6.0,40,0.00,,---,0.01,VWS V14.01,2013-11-08 19:32:00,
2013-11-08 13:35:00,65.8,40.8,30.21,ENE,70,4.0,4.0,40,0.00,,,0.01,Wunderground v.1.15,2013-11-08 19:35:00,
2013-11-08 13:37:00,65.8,43.3,30.21,East,90,2.0,6.0,44,0.00,,---,0.01,VWS V14.01,2013-11-08 19:37:00,
2013-11-08 13:40:00,66.0,43.5,30.21,SE,129,2.0,2.0,44,0.00,,,0.01,Wunderground v.1.15,2013-11-08 19:40:00,
2013-11-08 13:42:00,66.1,43.6,30.21,SE,136,1.0,5.0,44,0.00,,---,0.01,VWS V14.01,2013-11-08 19:42:00,
2013-11-08 13:45:00,66.0,41.6,30.20,SE,132,2.0,2.0,41,0.00,,,0.01,Wunderground v.1.15,2013-11-08 19:45:00,
2013-11-08 13:47:00,65.8,41.5,30.20,ENE,57,1.0,5.0,41,0.00,,---,0.01,VWS V14.01,2013-11-08 19:47:00,
2013-11-08 13:50:00,65.5,41.8,30.20,ENE,63,2.0,3.0,42,0.00,,,0.01,Wunderground v.1.15,2013-11-08 19:50:00,
2013-11-08 13:52:00,65.5,43.0,30.20,East,81,0.0,5.0,44,0.00,,---,0.01,VWS V14.01,2013-11-08 19:52:00,
2013-11-08 13:57:00,66.0,43.5,30.20,South,170,2.0,5.0,44,0.00,,---,0.01,VWS V14.01,2013-11-08 19:57:00,
2013-11-08 14:00:00,66.3,43.7,30.20,SE,138,3.0,3.0,44,0.00,,,0.01,Wunderground v.1.15,2013-11-08 20:00:00,
2013-11-08 14:03:00,66.8,42.4,30.20,NE,37,2.0,5.0,41,0.00,,---,0.01,VWS V14.01,2013-11-08 20:03:00,
2013-11-08 14:05:00,66.8,41.7,30.20,NE,37,2.0,3.0,40,0.00,,,0.01,Wunderground v.1.15,2013-11-08 20:05:00,
2013-11-08 14:08:00,66.8,41.1,30.20,SSE,156,5.0,7.0,39,0.00,,---,0.01,VWS V14.01,2013-11-08 20:08:00,
2013-11-08 14:10:00,66.8,42.3,30.20,SSE,164,3.0,3.0,41,0.00,,,0.01,Wunderground v.1.15,2013-11-08 20:10:00,
2013-11-08 14:13:00,66.9,42.5,30.20,SSE,166,2.0,3.0,41,0.00,,---,0.01,VWS V14.01,2013-11-08 20:13:00,
2013-11-08 14:15:00,66.9,42.4,30.20,SSE,153,3.0,6.0,41,0.00,,,0.01,Wunderground v.1.15,2013-11-08 20:15:00,
2013-11-08 14:18:00,66.8,42.4,30.20,ESE,109,3.0,8.0,41,0.00,,---,0.01,VWS V14.01,2013-11-08 20:18:00,
2013-11-08 14:20:00,66.8,42.3,30.20,SSE,166,3.0,3.0,41,0.00,,,0.01,Wunderground v.1.15,2013-11-08 20:20:00,
2013-11-08 14:23:00,66.8,42.4,30.20,SSW,212,6.0,11.0,41,0.00,,---,0.01,VWS V14.01,2013-11-08 20:23:00,
2013-11-08 14:25:00,66.8,42.3,30.20,SSE,147,5.0,5.0,41,0.00,,,0.01,Wunderground v.1.15,2013-11-08 20:25:00,
2013-11-08 14:29:00,66.4,44.4,30.20,East,88,1.0,11.0,45,0.00,,---,0.01,VWS V14.01,2013-11-08 20:29:00,
2013-11-08 14:30:00,66.4,44.4,30.20,East,88,4.0,4.0,45,0.00,,,0.01,Wunderground v.1.15,2013-11-08 20:30:00,
2013-11-08 14:34:00,66.9,44.9,30.19,South,169,5.0,5.0,45,0.00,,---,0.01,VWS V14.01,2013-11-08 20:34:00,
2013-11-08 14:35:00,67.1,45.0,30.19,SSE,157,3.0,4.0,45,0.00,,,0.01,Wunderground v.1.15,2013-11-08 20:35:00,
2013-11-08 14:39:00,67.4,45.3,30.19,SSE,147,1.0,5.0,45,0.00,,---,0.01,VWS V14.01,2013-11-08 20:39:00,
2013-11-08 14:44:00,67.6,42.4,30.19,East,97,3.0,6.0,40,0.00,,---,0.01,VWS V14.01,2013-11-08 20:44:00,
2013-11-08 14:45:00,67.6,41.7,30.19,East,95,3.0,3.0,39,0.00,,,0.01,Wunderground v.1.15,2013-11-08 20:45:00,
2013-11-08 14:49:00,67.6,42.4,30.19,SE,146,2.0,7.0,40,0.00,,---,0.01,VWS V14.01,2013-11-08 20:49:00,
2013-11-08 14:50:00,67.6,43.1,30.19,SSE,156,3.0,3.0,41,0.00,,,0.01,Wunderground v.1.15,2013-11-08 20:50:00,
2013-11-08 14:54:00,67.4,42.9,30.19,SSW,194,3.0,7.0,41,0.00,,---,0.01,VWS V14.01,2013-11-08 20:54:00,
2013-11-08 14:59:00,67.3,42.2,30.19,SE,139,1.0,7.0,40,0.00,,---,0.01,VWS V14.01,2013-11-08 20:59:00,
2013-11-08 15:00:00,67.3,42.1,30.19,SE,140,3.0,3.0,40,0.00,,,0.01,Wunderground v.1.15,2013-11-08 21:00:00,
2013-11-08 15:04:00,67.4,43.5,30.19,SSE,167,1.0,6.0,42,0.00,,---,0.01,VWS V14.01,2013-11-08 21:04:00,
2013-11-08 15:05:00,67.4,43.5,30.19,SSE,149,3.0,3.0,42,0.00,,,0.01,Wunderground v.1.15,2013-11-08 21:05:00,
2013-11-08 15:10:00,67.6,43.1,30.19,SSE,156,3.0,6.0,41,0.00,,---,0.01,VWS V14.01,2013-11-08 21:10:00,
2013-11-08 15:15:00,67.8,43.9,30.18,SE,146,2.0,3.0,42,0.00,,---,0.01,VWS V14.01,2013-11-08 21:15:00,
2013-11-08 15:20:00,67.8,42.6,30.18,SSW,193,3.0,7.0,40,0.00,,,0.01,Wunderground v.1.15,2013-11-08 21:20:00,
2013-11-08 15:25:00,67.3,43.4,30.18,SSE,160,4.0,7.0,42,0.00,,,0.01,Wunderground v.1.15,2013-11-08 21:25:00,
2013-11-08 15:30:00,67.1,43.9,30.17,SSE,147,2.0,2.0,43,0.00,,---,0.01,VWS V14.01,2013-11-08 21:30:00,
2013-11-08 15:35:00,67.1,43.8,30.17,SE,139,2.0,3.0,43,0.00,,,0.01,Wunderground v.1.15,2013-11-08 21:35:00,
2013-11-08 15:40:00,67.1,43.3,30.17,SE,145,1.0,3.0,42,0.00,,---,0.01,VWS V14.01,2013-11-08 21:40:00,
2013-11-08 15:45:00,66.8,43.0,30.17,SE,138,3.0,3.0,42,0.00,,,0.01,Wunderground v.1.15,2013-11-08 21:45:00,
2013-11-08 15:50:00,66.4,42.6,30.17,SSE,155,3.0,3.0,42,0.00,,,0.01,Wunderground v.1.15,2013-11-08 21:50:00,
2013-11-08 15:55:00,65.5,44.2,30.17,East,84,2.0,3.0,46,0.00,,,0.01,Wunderground v.1.15,2013-11-08 21:55:00,
2013-11-08 16:00:00,64.5,45.4,30.17,ESE,119,1.0,3.0,50,0.00,,,0.01,Wunderground v.1.15,2013-11-08 22:00:00,
2013-11-08 16:05:00,63.4,44.4,30.18,South,176,2.0,3.0,50,0.00,,,0.01,Wunderground v.1.15,2013-11-08 22:05:00,
2013-11-08 16:06:00,63.4,44.5,30.17,South,176,1.0,3.0,50,0.00,,---,0.01,VWS V14.01,2013-11-08 22:06:00,
2013-11-08 16:10:00,62.4,43.5,30.17,South,176,2.0,2.0,50,0.00,,,0.01,Wunderground v.1.15,2013-11-08 22:10:00,
2013-11-08 16:11:00,62.4,43.5,30.17,South,176,2.0,2.0,50,0.00,,---,0.01,VWS V14.01,2013-11-08 22:11:00,
2013-11-08 16:15:00,61.6,42.8,30.17,South,176,2.0,2.0,50,0.00,,,0.01,Wunderground v.1.15,2013-11-08 22:15:00,
2013-11-08 16:16:00,61.5,42.7,30.17,South,176,1.0,2.0,50,0.00,,---,0.01,VWS V14.01,2013-11-08 22:16:00,
2013-11-08 16:20:00,61.0,42.2,30.17,South,176,2.0,2.0,50,0.00,,,0.01,Wunderground v.1.15,2013-11-08 22:20:00,
2013-11-08 16:21:00,61.0,42.2,30.17,South,176,1.0,2.0,50,0.00,,---,0.01,VWS V14.01,2013-11-08 22:21:00,
2013-11-08 16:25:00,60.4,46.9,30.17,South,176,2.0,2.0,61,0.00,,,0.01,Wunderground v.1.15,2013-11-08 22:25:00,
2013-11-08 16:26:00,60.1,46.6,30.17,South,177,2.0,3.0,61,0.00,,---,0.01,VWS V14.01,2013-11-08 22:26:00,
2013-11-08 16:30:00,59.8,46.7,30.17,South,176,2.0,2.0,62,0.00,,,0.01,Wunderground v.1.15,2013-11-08 22:30:00,
2013-11-08 16:31:00,59.8,46.8,30.17,SSE,162,2.0,3.0,62,0.00,,---,0.01,VWS V14.01,2013-11-08 22:31:00,
2013-11-08 16:35:00,59.3,46.3,30.17,SSE,162,2.0,2.0,62,0.00,,,0.01,Wunderground v.1.15,2013-11-08 22:35:00,
2013-11-08 16:37:00,59.2,46.2,30.17,SSE,162,2.0,3.0,62,0.00,,---,0.01,VWS V14.01,2013-11-08 22:37:00,
2013-11-08 16:40:00,59.2,46.6,30.17,SSE,162,2.0,2.0,63,0.00,,,0.01,Wunderground v.1.15,2013-11-08 22:40:00,
2013-11-08 16:42:00,58.9,46.3,30.17,SSE,162,2.0,2.0,63,0.00,,---,0.01,VWS V14.01,2013-11-08 22:42:00,
2013-11-08 16:45:00,58.7,46.1,30.17,SSE,162,2.0,2.0,63,0.00,,,0.01,Wunderground v.1.15,2013-11-08 22:45:00,
2013-11-08 16:47:00,58.6,46.1,30.17,SSE,162,1.0,2.0,63,0.00,,---,0.01,VWS V14.01,2013-11-08 22:47:00,
2013-11-08 16:50:00,58.4,46.7,30.17,SSE,162,1.0,1.0,65,0.00,,,0.01,Wunderground v.1.15,2013-11-08 22:50:00,
2013-11-08 16:52:00,58.3,46.6,30.17,SSE,162,1.0,2.0,65,0.00,,---,0.01,VWS V14.01,2013-11-08 22:52:00,
2013-11-08 16:55:00,58.0,46.3,30.16,SSE,162,1.0,1.0,65,0.00,,,0.01,Wunderground v.1.15,2013-11-08 22:55:00,
2013-11-08 16:58:00,57.8,46.9,30.16,SSE,162,1.0,2.0,67,0.00,,---,0.01,VWS V14.01,2013-11-08 22:58:00,
2013-11-08 17:00:00,57.6,46.7,30.16,SSE,162,1.0,1.0,67,0.00,,,0.01,Wunderground v.1.15,2013-11-08 23:00:00,
2013-11-08 17:03:00,57.5,47.4,30.16,SSE,162,1.0,1.0,69,0.00,,---,0.01,VWS V14.01,2013-11-08 23:03:00,
2013-11-08 17:05:00,57.3,48.0,30.16,SSE,162,1.0,1.0,71,0.00,,,0.01,Wunderground v.1.15,2013-11-08 23:05:00,
2013-11-08 17:08:00,57.0,47.7,30.16,SSE,162,1.0,1.0,71,0.00,,---,0.01,VWS V14.01,2013-11-08 23:08:00,
2013-11-08 17:10:00,57.0,47.7,30.16,SSE,162,1.0,1.0,71,0.00,,,0.01,Wunderground v.1.15,2013-11-08 23:10:00,
2013-11-08 17:14:00,56.5,46.8,30.16,SSE,162,0.0,1.0,70,0.00,,---,0.01,VWS V14.01,2013-11-08 23:14:00,
2013-11-08 17:15:00,56.5,47.2,30.17,SSE,162,1.0,1.0,71,0.00,,,0.01,Wunderground v.1.15,2013-11-08 23:15:00,
2013-11-08 17:19:00,56.2,47.3,30.17,SSE,162,0.0,1.0,72,0.00,,---,0.01,VWS V14.01,2013-11-08 23:19:00,
2013-11-08 17:20:00,56.2,46.9,30.17,SSE,162,0.0,0.0,71,0.00,,,0.01,Wunderground v.1.15,2013-11-08 23:20:00,
2013-11-08 17:24:00,55.9,46.7,30.17,SSE,162,0.0,0.0,71,0.00,,---,0.01,VWS V14.01,2013-11-08 23:24:00,
2013-11-08 17:29:00,55.6,46.4,30.17,SSE,162,0.0,0.0,71,0.00,,---,0.01,VWS V14.01,2013-11-08 23:29:00,
2013-11-08 17:30:00,55.6,46.3,30.17,SSE,162,0.0,0.0,71,0.00,,,0.01,Wunderground v.1.15,2013-11-08 23:30:00,
2013-11-08 17:34:00,55.4,46.5,30.17,SSE,162,0.0,0.0,72,0.00,,---,0.01,VWS V14.01,2013-11-08 23:34:00,
2013-11-08 17:35:00,55.4,46.2,30.17,SSE,162,0.0,0.0,71,0.00,,,0.01,Wunderground v.1.15,2013-11-08 23:35:00,
2013-11-08 17:39:00,55.3,46.4,30.17,SSE,162,0.0,0.0,72,0.00,,---,0.01,VWS V14.01,2013-11-08 23:39:00,
2013-11-08 17:40:00,55.3,46.4,30.17,SSE,162,0.0,0.0,72,0.00,,,0.01,Wunderground v.1.15,2013-11-08 23:40:00,
2013-11-08 17:44:00,55.1,46.6,30.17,SSE,162,0.0,0.0,73,0.00,,---,0.01,VWS V14.01,2013-11-08 23:44:00,
2013-11-08 17:45:00,55.0,46.5,30.17,SSE,162,0.0,0.0,73,0.00,,,0.01,Wunderground v.1.15,2013-11-08 23:45:00,
2013-11-08 17:49:00,55.0,46.5,30.17,SSE,162,1.0,2.0,73,0.00,,---,0.01,VWS V14.01,2013-11-08 23:49:00,
2013-11-08 17:50:00,54.8,46.3,30.17,SSE,162,1.0,2.0,73,0.00,,,0.01,Wunderground v.1.15,2013-11-08 23:50:00,
2013-11-08 17:55:00,54.8,46.3,30.17,SSE,162,0.0,2.0,73,0.00,,---,0.01,VWS V14.01,2013-11-08 23:55:00,
2013-11-08 18:00:00,54.7,46.9,30.17,SSE,162,0.0,0.0,75,0.00,,,0.01,Wunderground v.1.15,2013-11-09 00:00:00,
2013-11-08 18:05:00,54.4,47.0,30.17,SSE,162,0.0,0.0,76,0.00,,---,0.01,VWS V14.01,2013-11-09 00:05:00,
2013-11-08 18:10:00,54.1,46.3,30.17,SSE,162,0.0,1.0,75,0.00,,,0.01,Wunderground v.1.15,2013-11-09 00:10:00,
2013-11-08 18:15:00,53.9,46.2,30.18,SSE,162,1.0,1.0,75,0.00,,,0.01,Wunderground v.1.15,2013-11-09 00:15:00,
2013-11-08 18:20:00,53.8,45.7,30.18,SSE,162,1.0,1.0,74,0.00,,,0.01,Wunderground v.1.15,2013-11-09 00:20:00,
2013-11-08 18:25:00,53.8,46.4,30.18,SSE,162,0.0,1.0,76,0.00,,,0.01,Wunderground v.1.15,2013-11-09 00:25:00,
2013-11-08 18:30:00,53.6,46.2,30.18,SSE,162,0.0,0.0,76,0.00,,---,0.01,VWS V14.01,2013-11-09 00:30:00,
2013-11-08 18:35:00,53.5,46.8,30.17,SSE,162,0.0,0.0,78,0.00,,,0.01,Wunderground v.1.15,2013-11-09 00:35:00,
2013-11-08 18:36:00,53.3,46.6,30.17,SSE,162,0.0,0.0,78,0.00,,---,0.01,VWS V14.01,2013-11-09 00:36:00,
2013-11-08 18:40:00,53.1,46.4,30.17,SSE,162,0.0,0.0,78,0.00,,,0.01,Wunderground v.1.15,2013-11-09 00:40:00,
2013-11-08 18:42:00,52.9,46.2,30.17,SSE,162,0.0,0.0,78,0.00,,---,0.01,VWS V14.01,2013-11-09 00:42:00,
2013-11-08 18:45:00,52.8,46.1,30.17,SSE,162,0.0,0.0,78,0.00,,,0.01,Wunderground v.1.15,2013-11-09 00:45:00,
2013-11-08 18:47:00,52.6,46.3,30.17,SSE,162,0.0,0.0,79,0.00,,---,0.01,VWS V14.01,2013-11-09 00:47:00,
2013-11-08 18:50:00,52.3,46.0,30.18,SSE,162,0.0,0.0,79,0.00,,,0.01,Wunderground v.1.15,2013-11-09 00:50:00,
2013-11-08 18:52:00,52.2,46.2,30.18,SSE,162,0.0,0.0,80,0.00,,---,0.01,VWS V14.01,2013-11-09 00:52:00,
2013-11-08 18:55:00,52.0,46.3,30.18,SSE,162,0.0,0.0,81,0.00,,,0.01,Wunderground v.1.15,2013-11-09 00:55:00,
2013-11-08 18:57:00,52.0,46.4,30.18,SSE,162,0.0,0.0,81,0.00,,---,0.01,VWS V14.01,2013-11-09 00:57:00,
2013-11-08 19:00:00,51.7,46.1,30.18,SSE,162,0.0,0.0,81,0.00,,,0.01,Wunderground v.1.15,2013-11-09 01:00:00,
2013-11-08 19:02:00,51.7,46.1,30.18,SSE,162,0.0,0.0,81,0.00,,---,0.01,VWS V14.01,2013-11-09 01:02:00,
2013-11-08 19:05:00,51.6,46.0,30.17,SSE,162,0.0,0.0,81,0.00,,,0.01,Wunderground v.1.15,2013-11-09 01:05:00,
2013-11-08 19:07:00,51.6,46.0,30.17,SSE,162,0.0,0.0,81,0.00,,---,0.01,VWS V14.01,2013-11-09 01:07:00,
2013-11-08 19:10:00,51.4,46.1,30.17,SSE,162,0.0,0.0,82,0.00,,,0.01,Wunderground v.1.15,2013-11-09 01:10:00,
2013-11-08 19:12:00,51.4,46.4,30.17,SSE,162,0.0,0.0,83,0.00,,---,0.01,VWS V14.01,2013-11-09 01:12:00,
2013-11-08 19:15:00,51.3,46.3,30.17,SSE,162,0.0,0.0,83,0.00,,,0.01,Wunderground v.1.15,2013-11-09 01:15:00,
2013-11-08 19:18:00,51.3,46.3,30.17,SSE,162,0.0,0.0,83,0.00,,---,0.01,VWS V14.01,2013-11-09 01:18:00,
2013-11-08 19:23:00,51.3,46.3,30.17,SSE,162,0.0,0.0,83,0.00,,---,0.01,VWS V14.01,2013-11-09 01:23:00,
2013-11-08 19:25:00,51.1,46.1,30.17,SSE,162,0.0,0.0,83,0.00,,,0.01,Wunderground v.1.15,2013-11-09 01:25:00,
2013-11-08 19:28:00,51.3,46.3,30.17,SSE,162,0.0,0.0,83,0.00,,---,0.01,VWS V14.01,2013-11-09 01:28:00,
2013-11-08 19:30:00,51.1,46.4,30.17,SSE,163,0.0,0.0,84,0.00,,,0.01,Wunderground v.1.15,2013-11-09 01:30:00,
2013-11-08 19:33:00,51.1,46.4,30.16,SSE,163,0.0,1.0,84,0.00,,---,0.01,VWS V14.01,2013-11-09 01:33:00,
2013-11-08 19:35:00,51.1,46.4,30.16,SSE,163,0.0,1.0,84,0.00,,,0.01,Wunderground v.1.15,2013-11-09 01:35:00,
2013-11-08 19:38:00,51.1,45.5,30.16,SSE,163,2.0,2.0,81,0.00,,---,0.01,VWS V14.01,2013-11-09 01:38:00,
2013-11-08 19:40:00,51.4,45.8,30.16,SSE,163,1.0,1.0,81,0.00,,,0.01,Wunderground v.1.15,2013-11-09 01:40:00,
2013-11-08 19:44:00,51.6,45.6,30.16,SSE,163,0.0,2.0,80,0.00,,---,0.01,VWS V14.01,2013-11-09 01:44:00,
2013-11-08 19:45:00,51.7,45.7,30.16,SSE,163,1.0,1.0,80,0.00,,,0.01,Wunderground v.1.15,2013-11-09 01:45:00,
2013-11-08 19:49:00,51.7,45.7,30.16,SSE,163,0.0,2.0,80,0.00,,---,0.01,VWS V14.01,2013-11-09 01:49:00,
2013-11-08 19:50:00,51.9,45.9,30.16,SSE,163,0.0,0.0,80,0.00,,,0.01,Wunderground v.1.15,2013-11-09 01:50:00,
2013-11-08 19:54:00,51.9,45.6,30.15,SSE,163,0.0,0.0,79,0.00,,---,0.01,VWS V14.01,2013-11-09 01:54:00,
2013-11-08 19:55:00,52.0,45.7,30.15,SSE,163,0.0,0.0,79,0.00,,,0.01,Wunderground v.1.15,2013-11-09 01:55:00,
2013-11-08 20:00:00,52.0,45.7,30.16,SSE,163,0.0,0.0,79,0.00,,---,0.01,VWS V14.01,2013-11-09 02:00:00,
2013-11-08 20:05:00,52.2,45.2,30.16,SSE,163,0.0,2.0,77,0.00,,,0.01,Wunderground v.1.15,2013-11-09 02:05:00,
2013-11-08 20:06:00,52.2,45.2,30.16,SSE,163,1.0,2.0,77,0.00,,---,0.01,VWS V14.01,2013-11-09 02:06:00,
2013-11-08 20:10:00,52.3,45.6,30.15,SSE,163,1.0,2.0,78,0.00,,,0.01,Wunderground v.1.15,2013-11-09 02:10:00,
2013-11-08 20:11:00,52.3,45.7,30.15,SSE,163,1.0,2.0,78,0.00,,---,0.01,VWS V14.01,2013-11-09 02:11:00,
2013-11-08 20:15:00,52.3,45.6,30.15,SSE,163,2.0,2.0,78,0.00,,,0.01,Wunderground v.1.15,2013-11-09 02:15:00,
2013-11-08 20:16:00,52.3,45.7,30.15,SSE,163,1.0,2.0,78,0.00,,---,0.01,VWS V14.01,2013-11-09 02:16:00,
2013-11-08 20:20:00,52.0,45.7,30.15,SSE,163,2.0,2.0,79,0.00,,,0.01,Wunderground v.1.15,2013-11-09 02:20:00,
2013-11-08 20:21:00,52.0,45.7,30.15,SSE,163,1.0,2.0,79,0.00,,---,0.01,VWS V14.01,2013-11-09 02:21:00,
2013-11-08 20:25:00,51.9,45.6,30.15,SSE,163,1.0,2.0,79,0.00,,,0.01,Wunderground v.1.15,2013-11-09 02:25:00,
2013-11-08 20:26:00,51.9,45.6,30.15,SSE,163,1.0,2.0,79,0.00,,---,0.01,VWS V14.01,2013-11-09 02:26:00,
2013-11-08 20:30:00,51.9,45.6,30.15,SSE,163,1.0,1.0,79,0.00,,,0.01,Wunderground v.1.15,2013-11-09 02:30:00,
2013-11-08 20:31:00,51.9,45.6,30.15,SSE,163,0.0,0.0,79,0.00,,---,0.01,VWS V14.01,2013-11-09 02:31:00,
2013-11-08 20:35:00,51.7,45.7,30.15,SSE,163,0.0,1.0,80,0.00,,,0.01,Wunderground v.1.15,2013-11-09 02:35:00,
2013-11-08 20:36:00,51.7,45.7,30.15,SSE,163,0.0,0.0,80,0.00,,---,0.01,VWS V14.01,2013-11-09 02:36:00,
2013-11-08 20:41:00,51.6,45.6,30.15,SSE,163,0.0,0.0,80,0.00,,---,0.01,VWS V14.01,2013-11-09 02:41:00,
2013-11-08 20:45:00,51.4,46.1,30.15,SSE,163,0.0,0.0,82,0.00,,,0.01,Wunderground v.1.15,2013-11-09 02:45:00,
2013-11-08 20:46:00,51.4,46.1,30.15,SSE,163,0.0,0.0,82,0.00,,---,0.01,VWS V14.01,2013-11-09 02:46:00,
2013-11-08 20:50:00,51.1,46.1,30.15,SSE,163,0.0,0.0,83,0.00,,,0.01,Wunderground v.1.15,2013-11-09 02:50:00,
2013-11-08 20:52:00,51.1,46.4,30.15,SSE,163,0.0,0.0,84,0.00,,---,0.01,VWS V14.01,2013-11-09 02:52:00,
2013-11-08 20:55:00,50.8,46.1,30.15,SSE,163,0.0,0.0,84,0.00,,,0.01,Wunderground v.1.15,2013-11-09 02:55:00,
2013-11-08 20:58:00,50.7,46.4,30.14,SSE,163,0.0,0.0,85,0.00,,---,0.01,VWS V14.01,2013-11-09 02:58:00,
2013-11-08 21:00:00,50.7,46.4,30.14,SSE,163,0.0,0.0,85,0.00,,,0.01,Wunderground v.1.15,2013-11-09 03:00:00,
2013-11-08 21:03:00,50.5,46.5,30.14,SSE,163,0.0,0.0,86,0.00,,---,0.01,VWS V14.01,2013-11-09 03:03:00,
2013-11-08 21:05:00,50.4,46.4,30.14,SSE,163,0.0,0.0,86,0.00,,,0.01,Wunderground v.1.15,2013-11-09 03:05:00,
2013-11-08 21:08:00,50.2,46.2,30.14,SSE,163,1.0,2.0,86,0.00,,---,0.01,VWS V14.01,2013-11-09 03:08:00,
2013-11-08 21:10:00,50.2,46.2,30.14,SSE,163,1.0,2.0,86,0.00,,,0.01,Wunderground v.1.15,2013-11-09 03:10:00,
2013-11-08 21:14:00,50.1,46.1,30.14,SSE,163,0.0,2.0,86,0.00,,---,0.01,VWS V14.01,2013-11-09 03:14:00,
2013-11-08 21:15:00,49.9,45.9,30.14,SSE,163,1.0,2.0,86,0.00,,,0.01,Wunderground v.1.15,2013-11-09 03:15:00,
2013-11-08 21:19:00,49.9,45.9,30.14,SSE,163,0.0,2.0,86,0.00,,---,0.01,VWS V14.01,2013-11-09 03:19:00,
2013-11-08 21:20:00,49.9,45.9,30.14,SSE,163,0.0,0.0,86,0.00,,,0.01,Wunderground v.1.15,2013-11-09 03:20:00,
2013-11-08 21:24:00,49.8,46.1,30.14,SSE,163,0.0,1.0,87,0.00,,---,0.01,VWS V14.01,2013-11-09 03:24:00,
2013-11-08 21:25:00,49.8,46.1,30.14,SSE,163,0.0,0.0,87,0.00,,,0.01,Wunderground v.1.15,2013-11-09 03:25:00,
2013-11-08 21:29:00,49.9,46.2,30.14,SSE,163,0.0,1.0,87,0.00,,---,0.01,VWS V14.01,2013-11-09 03:29:00,
2013-11-08 21:30:00,49.9,46.2,30.14,SSE,163,0.0,0.0,87,0.00,,,0.01,Wunderground v.1.15,2013-11-09 03:30:00,
2013-11-08 21:34:00,49.9,46.2,30.15,SSE,163,0.0,0.0,87,0.00,,---,0.01,VWS V14.01,2013-11-09 03:34:00,
2013-11-08 21:35:00,49.9,46.2,30.15,SSE,163,0.0,0.0,87,0.00,,,0.01,Wunderground v.1.15,2013-11-09 03:35:00,
2013-11-08 21:40:00,49.9,46.5,30.15,SSE,163,0.0,0.0,88,0.00,,---,0.01,VWS V14.01,2013-11-09 03:40:00,
2013-11-08 21:45:00,49.9,46.5,30.14,SSE,163,0.0,0.0,88,0.00,,---,0.01,VWS V14.01,2013-11-09 03:45:00,
2013-11-08 21:50:00,49.9,46.5,30.14,SSE,163,0.0,0.0,88,0.00,,---,0.01,VWS V14.01,2013-11-09 03:50:00,
2013-11-08 21:55:00,49.9,46.8,30.14,SSE,163,0.0,0.0,89,0.00,,---,0.01,VWS V14.01,2013-11-09 03:55:00,
2013-11-08 22:00:00,49.8,46.7,30.14,SSE,163,0.0,0.0,89,0.00,,,0.01,Wunderground v.1.15,2013-11-09 04:00:00,
2013-11-08 22:05:00,49.8,46.7,30.14,SSE,163,0.0,0.0,89,0.00,,,0.01,Wunderground v.1.15,2013-11-09 04:05:00,
2013-11-08 22:10:00,49.9,46.8,30.14,SSE,163,0.0,0.0,89,0.00,,,0.01,Wunderground v.1.15,2013-11-09 04:10:00,
2013-11-08 22:15:00,50.1,47.3,30.14,SSE,163,0.0,0.0,90,0.00,,,0.01,Wunderground v.1.15,2013-11-09 04:15:00,
2013-11-08 22:20:00,50.4,47.6,30.14,SSE,163,0.0,0.0,90,0.00,,,0.01,Wunderground v.1.15,2013-11-09 04:20:00,
2013-11-08 22:21:00,50.4,47.6,30.14,SSE,163,0.0,0.0,90,0.00,,---,0.01,VWS V14.01,2013-11-09 04:21:00,
2013-11-08 22:25:00,50.4,47.6,30.13,SSE,163,0.0,0.0,90,0.00,,,0.01,Wunderground v.1.15,2013-11-09 04:25:00,
2013-11-08 22:26:00,50.4,47.6,30.13,SSE,163,0.0,0.0,90,0.00,,---,0.01,VWS V14.01,2013-11-09 04:26:00,
2013-11-08 22:30:00,50.4,47.6,30.13,SSE,163,0.0,0.0,90,0.00,,,0.01,Wunderground v.1.15,2013-11-09 04:30:00,
2013-11-08 22:31:00,50.4,47.6,30.13,SSE,163,0.0,0.0,90,0.00,,---,0.01,VWS V14.01,2013-11-09 04:31:00,
2013-11-08 22:35:00,50.4,47.6,30.13,SSE,163,0.0,0.0,90,0.00,,,0.01,Wunderground v.1.15,2013-11-09 04:35:00,
2013-11-08 22:37:00,50.4,47.6,30.13,SSE,163,0.0,0.0,90,0.00,,---,0.01,VWS V14.01,2013-11-09 04:37:00,
2013-11-08 22:40:00,50.5,47.7,30.13,SSE,163,0.0,0.0,90,0.00,,,0.01,Wunderground v.1.15,2013-11-09 04:40:00,
2013-11-08 22:42:00,50.5,47.7,30.13,SSE,163,0.0,0.0,90,0.00,,---,0.01,VWS V14.01,2013-11-09 04:42:00,
2013-11-08 22:45:00,50.5,47.7,30.13,SSE,163,0.0,0.0,90,0.00,,,0.01,Wunderground v.1.15,2013-11-09 04:45:00,
2013-11-08 22:47:00,50.5,47.7,30.12,SSE,163,0.0,0.0,90,0.00,,---,0.01,VWS V14.01,2013-11-09 04:47:00,
2013-11-08 22:50:00,50.5,47.7,30.13,SSE,163,0.0,0.0,90,0.00,,,0.01,Wunderground v.1.15,2013-11-09 04:50:00,
2013-11-08 22:52:00,50.5,47.7,30.12,SSE,163,0.0,0.0,90,0.00,,---,0.01,VWS V14.01,2013-11-09 04:52:00,
2013-11-08 22:55:00,50.5,47.7,30.13,SSE,163,0.0,0.0,90,0.00,,,0.01,Wunderground v.1.15,2013-11-09 04:55:00,
2013-11-08 22:57:00,50.5,48.0,30.13,SSE,163,0.0,0.0,91,0.00,,---,0.01,VWS V14.01,2013-11-09 04:57:00,
2013-11-08 23:00:00,50.5,48.0,30.13,SSE,163,0.0,0.0,91,0.00,,,0.01,Wunderground v.1.15,2013-11-09 05:00:00,
2013-11-08 23:01:00,50.5,48.0,30.12,SSE,163,0.0,0.0,91,0.00,,---,0.01,VWS V14.01,2013-11-09 05:01:00,
2013-11-08 23:05:00,50.7,47.9,30.13,SSE,163,0.0,0.0,90,0.00,,,0.01,Wunderground v.1.15,2013-11-09 05:05:00,
2013-11-08 23:06:00,50.7,47.9,30.13,SSE,163,0.0,0.0,90,0.00,,---,0.01,VWS V14.01,2013-11-09 05:06:00,
2013-11-08 23:10:00,50.7,48.2,30.13,SSE,163,0.0,0.0,91,0.00,,,0.01,Wunderground v.1.15,2013-11-09 05:10:00,
2013-11-08 23:11:00,50.7,48.2,30.13,SSE,163,0.0,0.0,91,0.00,,---,0.01,VWS V14.01,2013-11-09 05:11:00,
2013-11-08 23:15:00,50.8,48.3,30.13,SSE,163,0.0,0.0,91,0.00,,,0.01,Wunderground v.1.15,2013-11-09 05:15:00,
2013-11-08 23:16:00,50.8,48.3,30.13,SSE,163,0.0,0.0,91,0.00,,---,0.01,VWS V14.01,2013-11-09 05:16:00,
2013-11-08 23:21:00,50.8,48.3,30.12,SSE,163,0.0,0.0,91,0.00,,---,0.01,VWS V14.01,2013-11-09 05:21:00,
2013-11-08 23:25:00,50.8,48.0,30.12,SSE,163,0.0,0.0,90,0.00,,,0.01,Wunderground v.1.15,2013-11-09 05:25:00,
2013-11-08 23:26:00,50.8,48.0,30.12,SSE,163,0.0,0.0,90,0.00,,---,0.01,VWS V14.01,2013-11-09 05:26:00,
2013-11-08 23:30:00,50.8,48.0,30.12,SSE,163,0.0,0.0,90,0.00,,,0.01,Wunderground v.1.15,2013-11-09 05:30:00,
2013-11-08 23:31:00,50.8,48.0,30.12,SSE,163,0.0,0.0,90,0.00,,---,0.01,VWS V14.01,2013-11-09 05:31:00,
2013-11-08 23:35:00,51.0,48.2,30.12,SSE,163,0.0,0.0,90,0.00,,,0.01,Wunderground v.1.15,2013-11-09 05:35:00,
2013-11-08 23:37:00,51.0,48.5,30.12,SSE,163,0.0,0.0,91,0.00,,---,0.01,VWS V14.01,2013-11-09 05:37:00,
2013-11-08 23:40:00,51.0,48.5,30.12,SSE,163,0.0,0.0,91,0.00,,,0.01,Wunderground v.1.15,2013-11-09 05:40:00,
2013-11-08 23:43:00,51.0,48.5,30.12,SSE,163,0.0,0.0,91,0.00,,---,0.01,VWS V14.01,2013-11-09 05:43:00,
2013-11-08 23:45:00,51.0,48.5,30.12,SSE,163,0.0,0.0,91,0.00,,,0.01,Wunderground v.1.15,2013-11-09 05:45:00,
2013-11-08 23:48:00,51.0,48.5,30.12,SSE,163,0.0,0.0,91,0.00,,---,0.01,VWS V14.01,2013-11-09 05:48:00,
2013-11-08 23:50:00,51.0,48.5,30.12,SSE,163,0.0,0.0,91,0.00,,,0.01,Wunderground v.1.15,2013-11-09 05:50:00,
2013-11-08 23:53:00,51.0,48.8,30.12,SSE,163,0.0,0.0,92,0.00,,---,0.01,VWS V14.01,2013-11-09 05:53:00,
2013-11-08 23:55:00,51.0,48.8,30.12,SSE,163,0.0,0.0,92,0.00,,,0.01,Wunderground v.1.15,2013-11-09 05:55:00,
2013-11-08 23:58:00,50.8,48.6,30.12,SSE,163,0.0,0.0,92,0.00,,---,0.01,VWS V14.01,2013-11-09 05:58:00,